Time;durP1;ratioP1;P1;durP2;ratioP2;P2;SDS_P1;SDS_P2;PMS_P1;PMS_P2;Temp;Humidity;BMP_temperature;BMP_pressure;BME280_temperature;BME280_humidity;BME280_pressure;Samples;Min_cycle;Max_cycle;Signal;HPM_P1;HPM_P2
2024/04/18 00:04:20;;;;;;;1.17;1.00;;;;;;;;;;11399133;25;20468;-63
2024/04/18 00:09:24;;;;;;;0.30;0.30;;;;;;;;;;11403804;25;20138;-64
2024/04/18 00:14:37;;;;;;;0.30;0.30;;;;;;;;;;11401792;25;20041;-63
2024/04/18 00:19:42;;;;;;;0.40;0.40;;;;;;;;;;11391114;25;20508;-63
2024/04/18 00:24:49;;;;;;;0.17;0.17;;;;;;;;;;11408491;25;20020;-63
2024/04/18 00:29:57;;;;;;;0.10;0.10;;;;;;;;;;11392967;25;20883;-63
2024/04/18 00:35:02;;;;;;;2.55;2.35;;;;;;;;;;11389669;25;20005;-63
2024/04/18 00:40:12;;;;;;;0.10;0.10;;;;;;;;;;11394092;25;20028;-63
2024/04/18 00:45:20;;;;;;;0.10;0.10;;;;;;;;;;11406337;25;20017;-63
2024/04/18 00:50:25;;;;;;;0.30;0.30;;;;;;;;;;11399070;25;20016;-63
2024/04/18 00:55:30;;;;;;;0.60;0.60;;;;;;;;;;11400741;25;20020;-63
2024/04/18 01:00:40;;;;;;;1.38;1.00;;;;;;;;;;11400553;25;20018;-63
2024/04/18 01:05:45;;;;;;;1.02;1.02;;;;;;;;;;11398062;25;20005;-63
2024/04/18 01:10:54;;;;;;;1.55;1.45;;;;;;;;;;11408125;25;20671;-62
2024/04/18 01:16:06;;;;;;;0.90;0.80;;;;;;;;;;11393545;25;20105;-63
2024/04/18 01:21:11;;;;;;;0.28;0.28;;;;;;;;;;11402484;25;20900;-63
2024/04/18 01:26:19;;;;;;;0.82;0.82;;;;;;;;;;11396161;25;20065;-63
2024/04/18 01:31:28;;;;;;;0.35;0.35;;;;;;;;;;11391597;25;20511;-63
2024/04/18 01:36:33;;;;;;;0.10;0.10;;;;;;;;;;11392807;25;20005;-63
2024/04/18 01:41:45;;;;;;;0.10;0.10;;;;;;;;;;11401559;25;20009;-62
2024/04/18 01:46:49;;;;;;;2.30;0.75;;;;;;;;;;11402221;25;20469;-63
2024/04/18 01:52:00;;;;;;;0.10;0.10;;;;;;;;;;11409767;25;20013;-63
2024/04/18 01:57:07;;;;;;;0.43;0.43;;;;;;;;;;11401586;25;20005;-62
2024/04/18 02:02:19;;;;;;;0.10;0.10;;;;;;;;;;11396650;25;23565;-62
2024/04/18 02:07:26;;;;;;;0.10;0.10;;;;;;;;;;11390647;25;20020;-62
2024/04/18 02:12:35;;;;;;;0.00;0.00;;;;;;;;;;11392506;25;20017;-64
2024/04/18 02:17:40;;;;;;;0.10;0.10;;;;;;;;;;11404491;25;20021;-64
2024/04/18 02:22:46;;;;;;;0.20;0.20;;;;;;;;;;11400985;25;20053;-66
2024/04/18 02:28:00;;;;;;;0.10;0.10;;;;;;;;;;11406864;25;20013;-64
2024/04/18 02:33:04;;;;;;;0.63;0.63;;;;;;;;;;11404093;25;20016;-63
2024/04/18 02:38:10;;;;;;;0.10;0.10;;;;;;;;;;11405001;25;20001;-64
2024/04/18 02:43:20;;;;;;;0.10;0.10;;;;;;;;;;11396092;25;20013;-63
2024/04/18 02:48:25;;;;;;;0.25;0.20;;;;;;;;;;11401768;25;20352;-63
2024/04/18 02:53:29;;;;;;;0.10;0.10;;;;;;;;;;11399687;25;20021;-62
2024/04/18 02:58:36;;;;;;;0.10;0.10;;;;;;;;;;11401649;25;20040;-62
2024/04/18 03:03:43;;;;;;;0.15;0.15;;;;;;;;;;11407157;25;20010;-62
2024/04/18 03:08:47;;;;;;;0.10;0.10;;;;;;;;;;11396410;25;21061;-62
2024/04/18 03:14:00;;;;;;;0.20;0.20;;;;;;;;;;11406523;25;20002;-62
2024/04/18 03:19:04;;;;;;;0.00;0.00;;;;;;;;;;11394970;25;20555;-64
2024/04/18 03:24:18;;;;;;;0.25;0.25;;;;;;;;;;11409261;25;20005;-63
2024/04/18 03:29:31;;;;;;;0.00;0.00;;;;;;;;;;11391562;25;20036;-63
2024/04/18 03:34:38;;;;;;;;;;;;;;;;;;11405051;25;20021;-63
2024/04/18 03:39:46;;;;;;;0.00;0.00;;;;;;;;;;11404546;25;19930;-63
2024/04/18 03:44:59;;;;;;;0.30;0.30;;;;;;;;;;11412762;25;20056;-63
2024/04/18 03:50:03;;;;;;;0.00;0.00;;;;;;;;;;11403920;25;20030;-64
2024/04/18 03:55:09;;;;;;;0.10;0.10;;;;;;;;;;11393905;25;20093;-63
2024/04/18 04:00:20;;;;;;;0.00;0.00;;;;;;;;;;11398675;25;20016;-64
2024/04/18 04:05:24;;;;;;;0.10;0.10;;;;;;;;;;11399473;25;20352;-63
2024/04/18 04:10:28;;;;;;;0.10;0.10;;;;;;;;;;11399331;25;20021;-63
2024/04/18 04:15:35;;;;;;;0.10;0.10;;;;;;;;;;11399799;25;20090;-63
2024/04/18 04:20:50;;;;;;;0.75;0.75;;;;;;;;;;11404242;25;20080;-64
2024/04/18 04:25:59;;;;;;;0.20;0.20;;;;;;;;;;11401978;25;20016;-63
2024/04/18 04:31:08;;;;;;;0.00;0.00;;;;;;;;;;11399950;25;20004;-62
2024/04/18 04:36:12;;;;;;;0.30;0.30;;;;;;;;;;11392231;25;20477;-63
2024/04/18 04:41:19;;;;;;;0.10;0.10;;;;;;;;;;11389595;25;20005;-63
2024/04/18 04:46:26;;;;;;;0.20;0.20;;;;;;;;;;11388613;25;20084;-63
2024/04/18 04:51:31;;;;;;;0.05;0.05;;;;;;;;;;11396165;25;20005;-62
2024/04/18 04:56:35;;;;;;;0.10;0.10;;;;;;;;;;11383541;25;20105;-62
2024/04/18 05:01:43;;;;;;;0.10;0.10;;;;;;;;;;11379888;25;20519;-62
2024/04/18 05:06:47;;;;;;;0.10;0.10;;;;;;;;;;11370415;25;20041;-62
2024/04/18 05:11:58;;;;;;;0.10;0.10;;;;;;;;;;11398423;25;20013;-63
2024/04/18 05:17:09;;;;;;;0.10;0.10;;;;;;;;;;11387112;25;20001;-64
2024/04/18 05:22:13;;;;;;;0.10;0.10;;;;;;;;;;11384366;25;20085;-64
2024/04/18 05:27:22;;;;;;;0.10;0.10;;;;;;;;;;11385520;25;20077;-62
2024/04/18 05:32:33;;;;;;;3.08;0.75;;;;;;;;;;11374856;25;20017;-63
2024/04/18 05:37:41;;;;;;;2.30;0.55;;;;;;;;;;11375113;25;20013;-64
2024/04/18 05:42:47;;;;;;;2.53;0.65;;;;;;;;;;11372216;25;20790;-63
2024/04/18 05:47:56;;;;;;;1.17;0.55;;;;;;;;;;11382343;25;20059;-63
2024/04/18 05:53:04;;;;;;;1.23;0.52;;;;;;;;;;11381283;25;20009;-62
2024/04/18 05:58:09;;;;;;;6.40;0.77;;;;;;;;;;11387899;25;20456;-63
2024/04/18 06:03:16;;;;;;;2.10;0.75;;;;;;;;;;11367890;25;20028;-63
2024/04/18 06:08:20;;;;;;;3.60;1.10;;;;;;;;;;11379435;25;23435;-64
2024/04/18 06:13:26;;;;;;;3.92;0.70;;;;;;;;;;11386625;25;20045;-63
2024/04/18 06:18:37;;;;;;;3.30;0.68;;;;;;;;;;11374846;25;20185;-63
2024/04/18 06:23:42;;;;;;;1.98;0.60;;;;;;;;;;11371909;25;20006;-64
2024/04/18 06:28:49;;;;;;;1.88;0.47;;;;;;;;;;11392567;25;20491;-65
2024/04/18 06:33:56;;;;;;;1.95;0.63;;;;;;;;;;11394249;25;20121;-63
2024/04/18 06:39:09;;;;;;;1.55;0.50;;;;;;;;;;11381764;25;20387;-63
2024/04/18 06:44:13;;;;;;;3.67;0.60;;;;;;;;;;11401492;25;20016;-63
2024/04/18 06:49:32;;;;;;;3.42;0.70;;;;;;;;;;11418544;25;20067;-63
2024/04/18 06:54:36;;;;;;;3.50;0.55;;;;;;;;;;11395970;25;20053;-63
2024/04/18 06:59:43;;;;;;;1.55;0.52;;;;;;;;;;11402592;25;20525;-62
2024/04/18 07:04:52;;;;;;;1.48;0.65;;;;;;;;;;11389976;25;20479;-62
2024/04/18 07:09:56;;;;;;;4.95;0.95;;;;;;;;;;11375733;25;20915;-70
2024/04/18 07:15:01;;;;;;;1.83;0.60;;;;;;;;;;11399361;25;20066;-62
2024/04/18 07:20:09;;;;;;;2.40;0.85;;;;;;;;;;11382672;25;20006;-59
2024/04/18 07:25:14;;;;;;;5.22;0.80;;;;;;;;;;11395488;25;20615;-62
2024/04/18 07:30:22;;;;;;;2.45;0.90;;;;;;;;;;11389318;25;20009;-63
2024/04/18 07:35:33;;;;;;;2.70;0.38;;;;;;;;;;11395237;25;20574;-62
2024/04/18 07:40:40;;;;;;;1.80;0.75;;;;;;;;;;11388378;25;20005;-62
2024/04/18 07:45:44;;;;;;;2.15;0.60;;;;;;;;;;11391764;25;20005;-62
2024/04/18 07:50:51;;;;;;;1.98;1.30;;;;;;;;;;11388375;25;20721;-63
2024/04/18 07:55:55;;;;;;;3.90;0.50;;;;;;;;;;11388981;25;20016;-64
2024/04/18 08:01:05;;;;;;;4.28;0.70;;;;;;;;;;11384493;25;20026;-61
2024/04/18 08:06:15;;;;;;;1.73;0.50;;;;;;;;;;11381374;25;20005;-62
2024/04/18 08:11:19;;;;;;;4.82;1.05;;;;;;;;;;11388156;25;20016;-62
2024/04/18 08:16:28;;;;;;;4.53;1.17;;;;;;;;;;11387315;25;20900;-62
2024/04/18 08:21:35;;;;;;;2.75;0.90;;;;;;;;;;11396418;25;20368;-62
2024/04/18 08:26:44;;;;;;;3.78;0.68;;;;;;;;;;11391409;25;21489;-63
2024/04/18 08:31:49;;;;;;;1.75;0.60;;;;;;;;;;11393367;25;20488;-61
2024/04/18 08:36:56;;;;;;;1.10;0.50;;;;;;;;;;11375288;25;20021;-60
2024/04/18 08:42:05;;;;;;;2.58;0.60;;;;;;;;;;11388096;25;20054;-62
2024/04/18 08:47:10;;;;;;;3.00;0.68;;;;;;;;;;11379063;25;20017;-62
2024/04/18 08:52:21;;;;;;;4.05;0.60;;;;;;;;;;11382796;25;20009;-61
2024/04/18 08:57:28;;;;;;;2.80;0.85;;;;;;;;;;11375112;25;20100;-64
2024/04/18 09:02:36;;;;;;;0.85;0.35;;;;;;;;;;11376064;25;20519;-62
2024/04/18 09:07:46;;;;;;;3.83;0.60;;;;;;;;;;11374997;25;20020;-64
2024/04/18 09:12:52;;;;;;;2.67;0.55;;;;;;;;;;11347859;25;20005;-61
2024/04/18 09:18:07;;;;;;;4.03;1.02;;;;;;;;;;11377630;25;20018;-62
2024/04/18 09:23:14;;;;;;;4.07;0.70;;;;;;;;;;11380325;25;20027;-64
2024/04/18 09:28:23;;;;;;;3.92;0.68;;;;;;;;;;11377754;25;20092;-62
2024/04/18 09:33:27;;;;;;;4.72;0.63;;;;;;;;;;11391776;25;22909;-61
2024/04/18 09:38:35;;;;;;;5.57;0.60;;;;;;;;;;11374820;25;20116;-62
2024/04/18 09:43:44;;;;;;;7.07;1.10;;;;;;;;;;11375445;25;20108;-62
2024/04/18 09:48:56;;;;;;;3.20;0.50;;;;;;;;;;11384259;25;20013;-62
2024/04/18 09:54:04;;;;;;;3.95;0.55;;;;;;;;;;11384450;25;20813;-63
2024/04/18 09:59:12;;;;;;;4.95;0.75;;;;;;;;;;11385305;25;20005;-60
2024/04/18 10:04:17;;;;;;;4.93;0.90;;;;;;;;;;11380683;25;20016;-63
2024/04/18 10:09:29;;;;;;;3.40;0.63;;;;;;;;;;11381070;25;20852;-63
2024/04/18 10:14:36;;;;;;;1.00;0.43;;;;;;;;;;11385576;25;20348;-61
2024/04/18 10:19:45;;;;;;;5.20;1.40;;;;;;;;;;11399723;25;20081;-61
2024/04/18 10:24:56;;;;;;;7.13;0.70;;;;;;;;;;11383083;25;20807;-62
2024/04/18 10:30:02;;;;;;;2.28;0.73;;;;;;;;;;11395212;25;20002;-61
2024/04/18 10:35:06;;;;;;;4.15;0.80;;;;;;;;;;11389264;25;20037;-62
2024/04/18 10:40:29;;;;;;;2.28;0.50;;;;;;;;;;11380444;25;20791;-58
2024/04/18 10:45:34;;;;;;;2.30;0.40;;;;;;;;;;11391463;25;20040;-61
2024/04/18 10:50:38;;;;;;;1.15;0.40;;;;;;;;;;11396123;25;20005;-62
2024/04/18 10:55:48;;;;;;;3.55;0.40;;;;;;;;;;11389189;25;20041;-64
2024/04/18 11:01:00;;;;;;;1.02;0.50;;;;;;;;;;11387659;25;20004;-62
2024/04/18 11:06:07;;;;;;;2.85;0.30;;;;;;;;;;11382049;25;20024;-62
2024/04/18 11:11:21;;;;;;;1.48;0.45;;;;;;;;;;11389494;25;20018;-63
2024/04/18 11:16:26;;;;;;;1.25;0.95;;;;;;;;;;11384608;25;20001;-62
2024/04/18 11:21:32;;;;;;;2.35;0.40;;;;;;;;;;11383437;25;20020;-62
2024/04/18 11:26:41;;;;;;;0.75;0.47;;;;;;;;;;11379029;25;20005;-64
2024/04/18 11:31:46;;;;;;;17.02;0.80;;;;;;;;;;11384855;25;20569;-62
2024/04/18 11:36:50;;;;;;;3.20;0.90;;;;;;;;;;11377879;25;20001;-61
2024/04/18 11:41:59;;;;;;;3.85;0.50;;;;;;;;;;11379558;25;20136;-62
2024/04/18 11:47:04;;;;;;;1.90;0.85;;;;;;;;;;11381486;25;20056;-62
2024/04/18 11:52:08;;;;;;;6.72;0.75;;;;;;;;;;11385173;25;20016;-63
2024/04/18 11:57:18;;;;;;;2.58;1.30;;;;;;;;;;11379521;25;19997;-63
2024/04/18 12:02:25;;;;;;;0.82;0.50;;;;;;;;;;11383546;25;20054;-63
2024/04/18 12:07:34;;;;;;;3.55;0.70;;;;;;;;;;11384090;25;22981;-64
2024/04/18 12:12:41;;;;;;;6.13;0.73;;;;;;;;;;11392713;25;20009;-63
2024/04/18 12:17:46;;;;;;;6.25;0.63;;;;;;;;;;11383855;25;20053;-64
2024/04/18 12:22:52;;;;;;;4.18;0.70;;;;;;;;;;11390152;25;20027;-62
2024/04/18 12:27:59;;;;;;;6.72;0.73;;;;;;;;;;11391754;25;20858;-61
2024/04/18 12:33:04;;;;;;;0.68;0.50;;;;;;;;;;11397702;25;20021;-63
2024/04/18 12:38:15;;;;;;;0.75;0.30;;;;;;;;;;11393267;25;20016;-63
2024/04/18 12:43:29;;;;;;;2.78;0.80;;;;;;;;;;11385729;25;20027;-64
2024/04/18 12:48:37;;;;;;;3.92;0.50;;;;;;;;;;11395039;25;20039;-63
2024/04/18 12:53:44;;;;;;;2.78;0.70;;;;;;;;;;11387775;25;20016;-62
2024/04/18 12:58:54;;;;;;;3.85;0.90;;;;;;;;;;11405831;25;20936;-61
2024/04/18 13:04:01;;;;;;;1.23;0.40;;;;;;;;;;11381504;25;20024;-63
2024/04/18 13:09:09;;;;;;;2.47;0.80;;;;;;;;;;11395212;25;20531;-62
2024/04/18 13:14:20;;;;;;;3.67;0.50;;;;;;;;;;11381651;25;20473;-63
2024/04/18 13:19:27;;;;;;;3.85;1.05;;;;;;;;;;11387717;25;20425;-62
2024/04/18 13:24:32;;;;;;;3.42;0.50;;;;;;;;;;11379166;25;20717;-64
2024/04/18 13:29:42;;;;;;;0.30;0.30;;;;;;;;;;11376626;25;20014;-62
2024/04/18 13:34:53;;;;;;;2.70;0.57;;;;;;;;;;11379279;25;20006;-63
2024/04/18 13:40:03;;;;;;;8.45;1.20;;;;;;;;;;11386465;25;20006;-63
2024/04/18 13:45:12;;;;;;;3.13;0.60;;;;;;;;;;11398293;25;20009;-62
2024/04/18 13:50:20;;;;;;;2.97;0.65;;;;;;;;;;11380570;25;20020;-63
2024/04/18 13:55:24;;;;;;;3.92;1.00;;;;;;;;;;11394065;25;20009;-63
2024/04/18 14:00:32;;;;;;;6.93;1.65;;;;;;;;;;11383768;25;20370;-63
2024/04/18 14:05:36;;;;;;;4.20;0.40;;;;;;;;;;11380926;25;20118;-61
2024/04/18 14:10:41;;;;;;;2.42;0.50;;;;;;;;;;11394639;25;20017;-62
2024/04/18 14:18:48;;;;;;;15.52;0.80;;;;;;;;;;11388580;25;20463;-63
2024/04/18 14:21:18;;;;;;;4.10;0.60;;;;;;;;;;11399563;25;20069;-62
2024/04/18 14:26:22;;;;;;;2.28;0.30;;;;;;;;;;11395476;25;20497;-62
2024/04/18 14:31:31;;;;;;;7.20;0.90;;;;;;;;;;11394130;25;20002;-63
2024/04/18 14:36:59;;;;;;;4.22;1.00;;;;;;;;;;11375189;25;20029;-62
2024/04/18 14:42:03;;;;;;;2.95;0.70;;;;;;;;;;11385514;25;20013;-64
2024/04/18 14:47:14;;;;;;;3.20;0.90;;;;;;;;;;11385486;25;20013;-62
2024/04/18 14:52:39;;;;;;;5.10;0.80;;;;;;;;;;11388499;25;20770;-62
2024/04/18 14:57:47;;;;;;;3.78;0.80;;;;;;;;;;11392962;25;20021;-64
2024/04/18 15:02:54;;;;;;;6.20;1.00;;;;;;;;;;11374892;25;20002;-61
2024/04/18 15:08:02;;;;;;;7.07;0.90;;;;;;;;;;11377293;25;20001;-62
2024/04/18 15:13:09;;;;;;;4.88;1.25;;;;;;;;;;11391957;25;20029;-61
2024/04/18 15:18:21;;;;;;;7.65;0.82;;;;;;;;;;11377560;25;20021;-61
2024/04/18 15:23:31;;;;;;;2.47;0.47;;;;;;;;;;11375329;25;20002;-63
2024/04/18 15:28:35;;;;;;;4.03;0.77;;;;;;;;;;11376832;25;20032;-63
2024/04/18 15:33:43;;;;;;;6.70;0.85;;;;;;;;;;11389159;25;20044;-62
2024/04/18 15:38:48;;;;;;;5.38;0.70;;;;;;;;;;11388355;25;20024;-61
2024/04/18 15:43:54;;;;;;;4.13;0.40;;;;;;;;;;11382862;25;20016;-62
2024/04/18 15:49:03;;;;;;;3.40;0.88;;;;;;;;;;11378934;25;20361;-63
2024/04/18 15:54:13;;;;;;;6.57;1.08;;;;;;;;;;11395190;25;20033;-63
2024/04/18 15:59:17;;;;;;;7.90;1.20;;;;;;;;;;11392268;25;20009;-63
2024/04/18 16:04:33;;;;;;;6.00;0.70;;;;;;;;;;11384387;25;20029;-63
2024/04/18 16:09:37;;;;;;;5.30;0.88;;;;;;;;;;11387500;25;20033;-63
2024/04/18 16:14:45;;;;;;;5.78;1.25;;;;;;;;;;11380612;25;20013;-62
2024/04/18 16:19:56;;;;;;;3.58;1.00;;;;;;;;;;11387747;25;20169;-63
2024/04/18 16:25:01;;;;;;;6.10;1.23;;;;;;;;;;11385979;25;20005;-63
2024/04/18 16:30:09;;;;;;;4.10;1.08;;;;;;;;;;11385866;25;20438;-64
2024/04/18 16:35:18;;;;;;;3.78;1.15;;;;;;;;;;11389088;25;20027;-63
2024/04/18 16:40:29;;;;;;;7.50;1.90;;;;;;;;;;11388785;25;20002;-65
2024/04/18 16:45:45;;;;;;;7.82;1.40;;;;;;;;;;11375873;25;20444;-65
2024/04/18 16:50:54;;;;;;;2.33;0.90;;;;;;;;;;11379666;25;20661;-64
2024/04/18 16:56:02;;;;;;;4.70;0.90;;;;;;;;;;11384876;25;21727;-62
2024/04/18 17:01:06;;;;;;;6.72;1.60;;;;;;;;;;11393788;25;20084;-62
2024/04/18 17:06:14;;;;;;;4.57;0.80;;;;;;;;;;11382806;25;20036;-63
2024/04/18 17:11:29;;;;;;;1.73;0.52;;;;;;;;;;11392598;25;20463;-62
2024/04/18 17:16:36;;;;;;;1.90;0.70;;;;;;;;;;11384031;25;20727;-63
2024/04/18 17:21:45;;;;;;;7.07;0.90;;;;;;;;;;11393812;25;20009;-64
2024/04/18 17:26:49;;;;;;;6.45;1.30;;;;;;;;;;11385413;25;20017;-63
2024/04/18 17:31:57;;;;;;;3.65;1.67;;;;;;;;;;11368134;25;20016;-64
2024/04/18 17:37:04;;;;;;;2.92;0.70;;;;;;;;;;11383581;25;20655;-63
2024/04/18 17:42:09;;;;;;;4.35;1.08;;;;;;;;;;11388678;25;20013;-61
2024/04/18 17:47:13;;;;;;;2.45;0.80;;;;;;;;;;11374531;25;20021;-64
2024/04/18 17:52:23;;;;;;;3.35;1.00;;;;;;;;;;11380078;25;20006;-63
2024/04/18 17:57:28;;;;;;;2.00;0.73;;;;;;;;;;11383176;25;20013;-64
2024/04/18 18:02:32;;;;;;;3.80;0.88;;;;;;;;;;11377935;25;20013;-63
2024/04/18 18:07:42;;;;;;;4.88;1.20;;;;;;;;;;11378463;25;20002;-63
2024/04/18 18:12:46;;;;;;;4.07;0.95;;;;;;;;;;11377504;25;20212;-63
2024/04/18 18:17:51;;;;;;;10.77;1.05;;;;;;;;;;11377999;25;20048;-63
2024/04/18 18:22:59;;;;;;;7.57;1.55;;;;;;;;;;11375711;25;20551;-63
2024/04/18 18:28:08;;;;;;;9.10;0.90;;;;;;;;;;11389303;25;20020;-63
2024/04/18 18:33:13;;;;;;;5.22;1.58;;;;;;;;;;11392290;25;20020;-63
2024/04/18 18:38:26;;;;;;;7.20;1.10;;;;;;;;;;11384096;25;20020;-64
2024/04/18 18:43:30;;;;;;;;;;;;;;;;;;11389112;25;20017;-63
2024/04/18 18:48:41;;;;;;;7.38;1.50;;;;;;;;;;11389545;25;19990;-62
2024/04/18 18:53:52;;;;;;;7.10;1.67;;;;;;;;;;11401787;25;20065;-63
2024/04/18 18:59:01;;;;;;;11.40;2.17;;;;;;;;;;11378293;25;20746;-64
2024/04/18 19:04:08;;;;;;;7.70;1.38;;;;;;;;;;11383076;25;20017;-62
2024/04/18 19:09:16;;;;;;;10.40;1.55;;;;;;;;;;11386958;25;20022;-65
2024/04/18 19:14:32;;;;;;;8.25;1.35;;;;;;;;;;11383012;25;20013;-63
2024/04/18 19:19:42;;;;;;;7.60;2.30;;;;;;;;;;11383269;25;20014;-62
2024/04/18 19:25:00;;;;;;;8.25;2.00;;;;;;;;;;11384956;25;20349;-63
2024/04/18 19:30:05;;;;;;;9.57;1.15;;;;;;;;;;11389624;25;20016;-63
2024/04/18 19:35:11;;;;;;;6.20;1.20;;;;;;;;;;11395163;25;20442;-64
2024/04/18 19:40:20;;;;;;;8.10;0.95;;;;;;;;;;11389890;25;20103;-64
2024/04/18 19:45:30;;;;;;;8.93;1.67;;;;;;;;;;11400057;25;20528;-64
2024/04/18 19:50:36;;;;;;;7.00;1.30;;;;;;;;;;11379052;25;20009;-62
2024/04/18 19:55:47;;;;;;;6.55;1.42;;;;;;;;;;11372739;25;20006;-64
2024/04/18 20:00:53;;;;;;;7.80;1.52;;;;;;;;;;11394140;25;20017;-64
2024/04/18 20:05:59;;;;;;;6.68;1.45;;;;;;;;;;11383975;25;20006;-62
2024/04/18 20:11:07;;;;;;;9.95;1.75;;;;;;;;;;11395276;25;20439;-64
2024/04/18 20:16:12;;;;;;;10.18;1.58;;;;;;;;;;11382882;25;20014;-62
2024/04/18 20:21:17;;;;;;;9.65;1.38;;;;;;;;;;11397738;25;20083;-65
2024/04/18 20:26:32;;;;;;;8.85;1.15;;;;;;;;;;11399248;25;20109;-63
2024/04/18 20:31:37;;;;;;;7.28;2.47;;;;;;;;;;11395113;25;20064;-65
2024/04/18 20:36:44;;;;;;;7.88;1.35;;;;;;;;;;11387965;25;20025;-63
2024/04/18 20:41:53;;;;;;;6.70;1.55;;;;;;;;;;11393092;25;20092;-64
2024/04/18 20:46:57;;;;;;;15.50;2.70;;;;;;;;;;11402090;25;20006;-64
2024/04/18 20:52:02;;;;;;;14.15;1.90;;;;;;;;;;11391885;25;20012;-62
2024/04/18 20:57:11;;;;;;;16.35;1.88;;;;;;;;;;11383641;25;20481;-60
2024/04/18 21:02:18;;;;;;;9.93;1.95;;;;;;;;;;11384172;25;20007;-64
2024/04/18 21:07:23;;;;;;;11.10;2.05;;;;;;;;;;11383889;25;20017;-62
2024/04/18 21:12:33;;;;;;;8.02;1.80;;;;;;;;;;11388833;25;20037;-63
2024/04/18 21:17:43;;;;;;;8.57;2.58;;;;;;;;;;11383020;25;20894;-63
2024/04/18 21:22:53;;;;;;;8.77;1.85;;;;;;;;;;11377938;25;20021;-62
2024/04/18 21:28:01;;;;;;;14.88;2.08;;;;;;;;;;11386379;25;20005;-62
2024/04/18 21:33:08;;;;;;;0.13;0.13;;;;;;;;;;11382207;25;20060;-62
2024/04/18 21:38:13;;;;;;;0.10;0.10;;;;;;;;;;11380540;25;20500;-63
2024/04/18 21:43:23;;;;;;;0.10;0.10;;;;;;;;;;11384081;25;20002;-61
2024/04/18 21:48:28;;;;;;;0.10;0.10;;;;;;;;;;11376876;25;20470;-62
2024/04/18 21:53:32;;;;;;;0.10;0.10;;;;;;;;;;11386138;25;20001;-62
2024/04/18 21:58:39;;;;;;;0.10;0.10;;;;;;;;;;11390890;25;20009;-65
2024/04/18 22:03:46;;;;;;;0.00;0.00;;;;;;;;;;11397927;25;20088;-62
2024/04/18 22:08:51;;;;;;;0.10;0.10;;;;;;;;;;11405440;25;20126;-63
2024/04/18 22:14:02;;;;;;;0.10;0.10;;;;;;;;;;11389423;25;20142;-62
2024/04/18 22:19:09;;;;;;;0.17;0.17;;;;;;;;;;11407348;25;20009;-64
2024/04/18 22:24:14;;;;;;;0.10;0.10;;;;;;;;;;11401189;25;20764;-63
2024/04/18 22:29:22;;;;;;;0.55;0.55;;;;;;;;;;11405870;25;20012;-62
2024/04/18 22:34:27;;;;;;;0.10;0.10;;;;;;;;;;11392341;25;20017;-62
2024/04/18 22:39:33;;;;;;;0.10;0.10;;;;;;;;;;11394855;25;20334;-63
2024/04/18 22:44:47;;;;;;;0.50;0.50;;;;;;;;;;11403468;25;20017;-63
2024/04/18 22:50:07;;;;;;;0.10;0.10;;;;;;;;;;11402048;25;20010;-62
2024/04/18 22:55:16;;;;;;;0.10;0.10;;;;;;;;;;11406427;25;20009;-62
2024/04/18 23:00:26;;;;;;;11.00;2.85;;;;;;;;;;11407321;25;20009;-63
2024/04/18 23:05:30;;;;;;;16.15;2.90;;;;;;;;;;11389705;25;20018;-62
2024/04/18 23:10:34;;;;;;;15.93;2.90;;;;;;;;;;11394429;25;20060;-62
2024/04/18 23:15:41;;;;;;;10.95;1.50;;;;;;;;;;11400245;25;20079;-62
2024/04/18 23:20:54;;;;;;;8.82;1.92;;;;;;;;;;11399521;25;20012;-64
2024/04/18 23:26:00;;;;;;;8.10;1.63;;;;;;;;;;11406978;25;20028;-62
2024/04/18 23:31:12;;;;;;;10.30;2.85;;;;;;;;;;11404174;25;20078;-62
2024/04/18 23:36:17;;;;;;;0.10;0.10;;;;;;;;;;11399811;25;20025;-62
2024/04/18 23:41:23;;;;;;;0.10;0.10;;;;;;;;;;11393029;25;20794;-63
2024/04/18 23:46:32;;;;;;;0.10;0.10;;;;;;;;;;11397926;25;20028;-62
2024/04/18 23:51:36;;;;;;;11.02;1.92;;;;;;;;;;11399266;25;20028;-63
2024/04/18 23:56:40;;;;;;;15.15;2.33;;;;;;;;;;11389735;25;20101;-62
